createdAt,value
2019-01-03T00:18:19.560Z,66.61
2019-01-03T00:23:57.070Z,66.25
2019-01-03T00:30:31.527Z,66.21
2019-01-03T01:02:05.811Z,68.12
2019-01-03T02:58:23.743Z,67.56
2019-01-03T04:14:24.747Z,70.57
2019-01-03T04:51:57.501Z,70.20
2019-01-03T05:28:39.738Z,69.56
2019-01-03T05:35:11.927Z,69.60
2019-01-03T08:48:48.559Z,73.71
2019-01-03T08:54:32.670Z,73.42
2019-01-03T10:03:16.867Z,76.79
2019-01-03T10:42:00.527Z,74.33
2019-01-03T11:18:41.332Z,72.33
2019-01-03T11:23:43.711Z,70.09
2019-01-03T11:28:46.375Z,67.71
2019-01-03T11:33:48.785Z,66.80
2019-01-03T11:38:51.222Z,66.54
2019-01-03T11:43:54.321Z,66.90
2019-01-03T11:48:56.954Z,67.59
2019-01-03T11:53:59.086Z,68.89
2019-01-03T11:59:01.040Z,68.65
2019-01-03T12:04:03.573Z,68.73
2019-01-03T12:09:06.762Z,69.73
2019-01-03T12:14:08.885Z,69.89
2019-01-03T12:19:11.348Z,67.96
2019-01-03T12:24:14.365Z,66.43
2019-01-03T12:29:16.860Z,66.42
2019-01-03T12:34:19.528Z,66.76
2019-01-03T12:39:22.489Z,67.80
2019-01-03T12:44:25.062Z,67.87
2019-01-03T12:49:27.742Z,67.88
2019-01-03T12:54:30.660Z,67.43
2019-01-03T12:59:33.431Z,66.93
2019-01-03T13:04:36.182Z,65.25
2019-01-03T13:09:38.995Z,65.78
2019-01-03T13:14:41.553Z,64.77
2019-01-03T13:19:43.640Z,65.33
2019-01-03T13:24:46.265Z,65.64
2019-01-03T13:29:48.997Z,67.44
2019-01-03T13:34:52.015Z,68.04
2019-01-03T13:39:54.943Z,68.94
2019-01-03T13:44:57.335Z,69.07
2019-01-03T13:50:00.239Z,68.89
2019-01-03T13:55:03.713Z,68.75
2019-01-03T14:00:09.192Z,69.60
2019-01-03T14:05:12.034Z,71.20
2019-01-03T14:10:14.924Z,71.01
2019-01-03T14:15:17.746Z,71.08
2019-01-03T14:20:20.568Z,71.45
2019-01-03T14:25:23.217Z,71.96
2019-01-03T14:30:29.276Z,73.09
2019-01-03T14:35:36.599Z,73.72
2019-01-03T14:40:39.215Z,74.46
2019-01-03T14:45:41.934Z,74.15
2019-01-03T14:50:44.631Z,74.49
2019-01-03T14:55:47.376Z,74.98
2019-01-03T15:00:50.193Z,74.99
2019-01-03T15:05:53.087Z,75.75
2019-01-03T15:10:56.107Z,76.04
2019-01-03T15:15:58.867Z,76.54
2019-01-03T15:21:01.589Z,76.24
2019-01-03T15:26:04.700Z,76.32
2019-01-03T15:31:07.496Z,76.42
2019-01-03T15:36:10.096Z,77.21
2019-01-03T15:41:12.803Z,76.70
2019-01-03T15:46:15.282Z,76.91
2019-01-03T15:51:18.065Z,76.75
2019-01-03T15:56:21.004Z,76.90
2019-01-03T16:01:24.105Z,76.66
2019-01-03T16:06:27.002Z,76.95
2019-01-03T16:11:29.492Z,76.96
2019-01-03T16:16:31.891Z,77.21
2019-01-03T16:21:34.233Z,77.29
2019-01-03T16:26:36.692Z,77.44
2019-01-03T16:31:39.479Z,83.57
2019-01-03T16:36:42.310Z,77.50
2019-01-03T16:41:44.953Z,77.89
2019-01-03T16:46:47.634Z,77.73
2019-01-03T16:51:50.237Z,77.78
2019-01-03T16:56:53.052Z,78.01
2019-01-03T17:01:55.874Z,79.90
2019-01-03T17:06:58.137Z,80.43
2019-01-03T17:12:00.502Z,80.05
2019-01-03T17:17:02.886Z,79.82
2019-01-03T17:22:05.393Z,79.67
2019-01-03T17:27:08.051Z,79.94
2019-01-03T17:32:11.060Z,79.95
2019-01-03T17:37:13.917Z,79.71
2019-01-03T17:42:16.942Z,80.04
2019-01-03T17:47:19.841Z,80.73
2019-01-03T17:52:22.630Z,80.55
2019-01-03T17:57:25.029Z,80.30
2019-01-03T18:02:27.305Z,80.56
2019-01-03T18:07:30.414Z,81.03
2019-01-03T18:12:33.310Z,80.80
2019-01-03T18:17:36.208Z,80.94
2019-01-03T18:22:39.235Z,80.99
2019-01-03T18:27:44.240Z,80.75
2019-01-03T18:32:46.936Z,80.72
2019-01-03T18:37:49.384Z,81.02
2019-01-03T18:42:51.985Z,80.48
2019-01-03T18:47:54.677Z,80.07
2019-01-03T18:52:57.464Z,80.28
2019-01-03T18:58:00.550Z,80.70
2019-01-03T19:03:03.501Z,80.79
2019-01-03T19:08:06.071Z,80.80
2019-01-03T19:13:08.766Z,80.26
2019-01-03T19:18:12.103Z,79.59
2019-01-03T19:23:15.088Z,79.60
2019-01-03T19:28:17.896Z,79.50
2019-01-03T19:33:21.063Z,79.27
2019-01-03T19:38:23.806Z,79.50
2019-01-03T19:43:27.757Z,79.86
2019-01-03T19:48:33.079Z,79.99
2019-01-03T19:53:38.240Z,82.13
2019-01-03T19:58:44.520Z,82.70
2019-01-03T20:03:50.371Z,81.42
2019-01-03T20:08:54.702Z,80.82
2019-01-03T20:13:58.803Z,83.43
2019-01-03T20:19:01.771Z,82.80
2019-01-03T20:24:05.527Z,81.74
2019-01-03T20:29:09.171Z,81.28
2019-01-03T20:34:13.855Z,80.84
2019-01-03T20:39:17.638Z,80.62
2019-01-03T20:44:22.868Z,81.19
2019-01-03T20:49:26.652Z,81.01
2019-01-03T20:54:33.571Z,80.88
2019-01-03T20:59:38.452Z,80.62
2019-01-03T21:04:44.282Z,81.28
2019-01-03T21:09:49.317Z,80.47
2019-01-03T21:14:56.074Z,80.06
2019-01-03T21:20:02.317Z,79.97
2019-01-03T21:25:07.937Z,81.53
2019-01-03T21:30:14.367Z,80.46
2019-01-03T21:35:18.882Z,79.89
2019-01-03T21:40:23.223Z,80.38
2019-01-03T21:45:27.141Z,80.69
2019-01-03T21:50:31.278Z,80.08
2019-01-03T21:55:34.963Z,79.70
2019-01-03T22:00:37.546Z,79.33
2019-01-03T22:05:40.735Z,79.44
2019-01-03T22:10:44.036Z,79.35
2019-01-03T22:15:46.932Z,79.07
2019-01-03T22:20:50.168Z,78.84
2019-01-03T22:25:52.999Z,78.75
2019-01-03T22:30:56.157Z,78.95
2019-01-03T22:35:59.543Z,79.65
2019-01-03T22:41:02.466Z,79.44
2019-01-03T22:46:05.080Z,80.04
2019-01-03T22:51:07.993Z,81.68
2019-01-03T22:56:10.769Z,81.28
2019-01-03T23:01:13.561Z,81.45
2019-01-03T23:06:16.654Z,81.65
2019-01-03T23:11:19.564Z,82.15
2019-01-03T23:16:22.776Z,83.22
2019-01-03T23:21:25.800Z,84.28
2019-01-03T23:26:28.430Z,84.01
2019-01-03T23:31:30.987Z,84.45
2019-01-03T23:36:33.676Z,84.43
2019-01-03T23:41:36.623Z,84.73
2019-01-03T23:46:39.188Z,85.73
2019-01-03T23:51:42.269Z,86.15
2019-01-03T23:56:45.061Z,86.54
